sensor_id;sensor_type;location;lat;lon;timestamp;pressure;altitude;pressure_sealevel;temperature;humidity
20616;BME280;10467;42.338;23.552;2022-07-17T00:00:55;91345.28;;;18.03;100.00
20616;BME280;10467;42.338;23.552;2022-07-17T00:03:20;91347.00;;;18.11;100.00
20616;BME280;10467;42.338;23.552;2022-07-17T00:05:46;91349.00;;;18.14;100.00
20616;BME280;10467;42.338;23.552;2022-07-17T00:08:12;91343.78;;;18.05;100.00
20616;BME280;10467;42.338;23.552;2022-07-17T00:10:38;91344.16;;;18.04;100.00
20616;BME280;10467;42.338;23.552;2022-07-17T00:13:04;91348.50;;;18.08;100.00
20616;BME280;10467;42.338;23.552;2022-07-17T00:15:30;91340.94;;;18.14;100.00
20616;BME280;10467;42.338;23.552;2022-07-17T00:17:55;91347.31;;;18.21;100.00
20616;BME280;10467;42.338;23.552;2022-07-17T00:20:20;91348.88;;;18.22;100.00
20616;BME280;10467;42.338;23.552;2022-07-17T00:22:46;91350.88;;;18.25;100.00
20616;BME280;10467;42.338;23.552;2022-07-17T00:25:12;91353.56;;;18.25;100.00
20616;BME280;10467;42.338;23.552;2022-07-17T00:27:38;91356.69;;;18.27;100.00
20616;BME280;10467;42.338;23.552;2022-07-17T00:30:03;91355.56;;;18.29;100.00
20616;BME280;10467;42.338;23.552;2022-07-17T00:32:29;91364.69;;;18.24;100.00
20616;BME280;10467;42.338;23.552;2022-07-17T00:34:54;91367.72;;;18.22;100.00
20616;BME280;10467;42.338;23.552;2022-07-17T00:37:19;91357.81;;;18.26;100.00
20616;BME280;10467;42.338;23.552;2022-07-17T00:39:45;91372.41;;;18.25;100.00
20616;BME280;10467;42.338;23.552;2022-07-17T00:42:11;91368.84;;;18.21;100.00
20616;BME280;10467;42.338;23.552;2022-07-17T00:44:37;91375.06;;;18.10;100.00
20616;BME280;10467;42.338;23.552;2022-07-17T00:47:02;91378.72;;;18.02;100.00
20616;BME280;10467;42.338;23.552;2022-07-17T00:49:27;91376.69;;;17.99;100.00
20616;BME280;10467;42.338;23.552;2022-07-17T00:51:53;91385.88;;;17.98;100.00
20616;BME280;10467;42.338;23.552;2022-07-17T00:54:18;91373.66;;;18.00;100.00
20616;BME280;10467;42.338;23.552;2022-07-17T00:56:45;91390.25;;;18.02;100.00
20616;BME280;10467;42.338;23.552;2022-07-17T00:59:11;91386.44;;;18.03;100.00
20616;BME280;10467;42.338;23.552;2022-07-17T01:01:38;91386.00;;;18.01;100.00
20616;BME280;10467;42.338;23.552;2022-07-17T01:04:03;91385.44;;;17.95;100.00
20616;BME280;10467;42.338;23.552;2022-07-17T01:06:29;91386.00;;;18.01;100.00
20616;BME280;10467;42.338;23.552;2022-07-17T01:08:55;91385.78;;;17.94;100.00
20616;BME280;10467;42.338;23.552;2022-07-17T01:11:20;91382.88;;;17.99;100.00
20616;BME280;10467;42.338;23.552;2022-07-17T01:13:46;91393.34;;;17.88;100.00
20616;BME280;10467;42.338;23.552;2022-07-17T01:16:12;91390.06;;;17.83;100.00
20616;BME280;10467;42.338;23.552;2022-07-17T01:18:37;91391.00;;;17.75;100.00
20616;BME280;10467;42.338;23.552;2022-07-17T01:21:06;91388.56;;;17.70;100.00
20616;BME280;10467;42.338;23.552;2022-07-17T01:23:31;91392.66;;;17.67;100.00
20616;BME280;10467;42.338;23.552;2022-07-17T01:25:57;91391.00;;;17.62;100.00
20616;BME280;10467;42.338;23.552;2022-07-17T01:28:22;91387.69;;;17.53;100.00
20616;BME280;10467;42.338;23.552;2022-07-17T01:30:48;91391.25;;;17.45;100.00
20616;BME280;10467;42.338;23.552;2022-07-17T01:33:14;91388.03;;;17.40;100.00
20616;BME280;10467;42.338;23.552;2022-07-17T01:35:39;91388.38;;;17.38;100.00
20616;BME280;10467;42.338;23.552;2022-07-17T01:38:05;91387.00;;;17.32;100.00
20616;BME280;10467;42.338;23.552;2022-07-17T01:40:30;91388.38;;;17.38;100.00
20616;BME280;10467;42.338;23.552;2022-07-17T01:42:55;91378.06;;;17.40;100.00
20616;BME280;10467;42.338;23.552;2022-07-17T01:45:21;91387.25;;;17.39;100.00
20616;BME280;10467;42.338;23.552;2022-07-17T01:47:46;91388.03;;;17.40;100.00
20616;BME280;10467;42.338;23.552;2022-07-17T01:50:12;91377.38;;;17.43;100.00
20616;BME280;10467;42.338;23.552;2022-07-17T01:52:38;91387.44;;;17.46;100.00
20616;BME280;10467;42.338;23.552;2022-07-17T01:55:05;91380.50;;;17.45;100.00
20616;BME280;10467;42.338;23.552;2022-07-17T01:57:30;91376.94;;;17.41;100.00
20616;BME280;10467;42.338;23.552;2022-07-17T01:59:55;91371.22;;;17.43;100.00
20616;BME280;10467;42.338;23.552;2022-07-17T02:02:21;91379.53;;;17.38;100.00
20616;BME280;10467;42.338;23.552;2022-07-17T02:04:46;91382.41;;;17.32;100.00
20616;BME280;10467;42.338;23.552;2022-07-17T02:07:11;91379.38;;;17.34;100.00
20616;BME280;10467;42.338;23.552;2022-07-17T02:09:37;91379.38;;;17.34;100.00
20616;BME280;10467;42.338;23.552;2022-07-17T02:12:03;91377.28;;;17.27;100.00
20616;BME280;10467;42.338;23.552;2022-07-17T02:14:28;91375.81;;;17.18;100.00
20616;BME280;10467;42.338;23.552;2022-07-17T02:16:54;91381.97;;;17.18;100.00
20616;BME280;10467;42.338;23.552;2022-07-17T02:19:19;91391.97;;;17.18;100.00
20616;BME280;10467;42.338;23.552;2022-07-17T02:21:44;91390.38;;;17.17;100.00
20616;BME280;10467;42.338;23.552;2022-07-17T02:24:10;91402.50;;;17.11;100.00
20616;BME280;10467;42.338;23.552;2022-07-17T02:26:35;91399.13;;;17.01;100.00
20616;BME280;10467;42.338;23.552;2022-07-17T02:29:00;91395.88;;;16.96;100.00
20616;BME280;10467;42.338;23.552;2022-07-17T02:31:26;91397.47;;;16.97;100.00
20616;BME280;10467;42.338;23.552;2022-07-17T02:33:51;91392.19;;;17.00;100.00
20616;BME280;10467;42.338;23.552;2022-07-17T02:36:16;91391.28;;;16.96;100.00
20616;BME280;10467;42.338;23.552;2022-07-17T02:38:42;91398.91;;;16.94;100.00
20616;BME280;10467;42.338;23.552;2022-07-17T02:41:07;91400.94;;;16.97;100.00
20616;BME280;10467;42.338;23.552;2022-07-17T02:43:32;91406.41;;;17.01;100.00
20616;BME280;10467;42.338;23.552;2022-07-17T02:45:58;91405.19;;;16.98;100.00
20616;BME280;10467;42.338;23.552;2022-07-17T02:48:23;91401.50;;;16.91;100.00
20616;BME280;10467;42.338;23.552;2022-07-17T02:50:48;91402.28;;;16.91;100.00
20616;BME280;10467;42.338;23.552;2022-07-17T02:53:14;91391.88;;;16.90;100.00
20616;BME280;10467;42.338;23.552;2022-07-17T02:55:39;91398.13;;;16.94;100.00
20616;BME280;10467;42.338;23.552;2022-07-17T02:58:04;91402.50;;;16.98;100.00
20616;BME280;10467;42.338;23.552;2022-07-17T03:00:29;91412.78;;;16.96;100.00
20616;BME280;10467;42.338;23.552;2022-07-17T03:02:55;91409.88;;;17.01;100.00
20616;BME280;10467;42.338;23.552;2022-07-17T03:05:21;91406.31;;;17.10;100.00
20616;BME280;10467;42.338;23.552;2022-07-17T03:07:46;91409.44;;;17.12;100.00
20616;BME280;10467;42.338;23.552;2022-07-17T03:10:11;91409.22;;;17.04;100.00
20616;BME280;10467;42.338;23.552;2022-07-17T03:12:37;91408.75;;;17.02;100.00
20616;BME280;10467;42.338;23.552;2022-07-17T03:15:03;91410.66;;;17.02;100.00
20616;BME280;10467;42.338;23.552;2022-07-17T03:17:28;91408.53;;;16.95;100.00
20616;BME280;10467;42.338;23.552;2022-07-17T03:19:54;91412.00;;;16.96;100.00
20616;BME280;10467;42.338;23.552;2022-07-17T03:22:19;91421.28;;;16.86;100.00
20616;BME280;10467;42.338;23.552;2022-07-17T03:24:44;91417.38;;;16.84;100.00
20616;BME280;10467;42.338;23.552;2022-07-17T03:27:09;91426.22;;;16.84;100.00
20616;BME280;10467;42.338;23.552;2022-07-17T03:29:35;91417.81;;;16.86;100.00
20616;BME280;10467;42.338;23.552;2022-07-17T03:32:00;91421.50;;;16.81;100.00
20616;BME280;10467;42.338;23.552;2022-07-17T03:34:25;91425.44;;;16.84;100.00
20616;BME280;10467;42.338;23.552;2022-07-17T03:36:51;91435.28;;;16.80;100.00
20616;BME280;10467;42.338;23.552;2022-07-17T03:39:16;91425.78;;;16.82;100.00
20616;BME280;10467;42.338;23.552;2022-07-17T03:41:41;91435.50;;;16.87;100.00
20616;BME280;10467;42.338;23.552;2022-07-17T03:44:07;91431.16;;;16.94;100.00
20616;BME280;10467;42.338;23.552;2022-07-17T03:46:33;91432.31;;;17.05;100.00
20616;BME280;10467;42.338;23.552;2022-07-17T03:48:58;91436.78;;;17.14;100.00
20616;BME280;10467;42.338;23.552;2022-07-17T03:51:23;91435.22;;;17.25;100.00
20616;BME280;10467;42.338;23.552;2022-07-17T03:53:49;91444.16;;;17.41;100.00
20616;BME280;10467;42.338;23.552;2022-07-17T03:56:14;91448.72;;;17.65;100.00
20616;BME280;10467;42.338;23.552;2022-07-17T03:58:40;91449.50;;;17.90;100.00
20616;BME280;10467;42.338;23.552;2022-07-17T04:01:05;91451.94;;;18.07;100.00
20616;BME280;10467;42.338;23.552;2022-07-17T04:03:30;91448.97;;;18.24;100.00
20616;BME280;10467;42.338;23.552;2022-07-17T04:05:55;91452.31;;;18.34;100.00
20616;BME280;10467;42.338;23.552;2022-07-17T04:08:21;91453.03;;;18.46;100.00
20616;BME280;10467;42.338;23.552;2022-07-17T04:10:46;91464.09;;;18.85;100.00
20616;BME280;10467;42.338;23.552;2022-07-17T04:13:11;91461.00;;;18.99;100.00
20616;BME280;10467;42.338;23.552;2022-07-17T04:15:37;91464.63;;;19.06;100.00
20616;BME280;10467;42.338;23.552;2022-07-17T04:18:15;91466.03;;;19.16;100.00
20616;BME280;10467;42.338;23.552;2022-07-17T04:20:40;91472.38;;;19.39;100.00
20616;BME280;10467;42.338;23.552;2022-07-17T04:23:05;91471.81;;;19.62;100.00
20616;BME280;10467;42.338;23.552;2022-07-17T04:25:31;91477.41;;;20.04;100.00
20616;BME280;10467;42.338;23.552;2022-07-17T04:27:56;91476.06;;;20.33;100.00
20616;BME280;10467;42.338;23.552;2022-07-17T04:30:21;91475.97;;;20.45;100.00
20616;BME280;10467;42.338;23.552;2022-07-17T04:32:47;91467.34;;;20.40;100.00
20616;BME280;10467;42.338;23.552;2022-07-17T04:35:12;91484.06;;;20.45;100.00
20616;BME280;10467;42.338;23.552;2022-07-17T04:37:37;91484.91;;;20.49;100.00
20616;BME280;10467;42.338;23.552;2022-07-17T04:40:03;91477.88;;;20.64;100.00
20616;BME280;10467;42.338;23.552;2022-07-17T04:42:28;91489.69;;;20.56;100.00
20616;BME280;10467;42.338;23.552;2022-07-17T04:44:53;91485.91;;;20.41;100.00
20616;BME280;10467;42.338;23.552;2022-07-17T04:47:18;91496.28;;;20.39;100.00
20616;BME280;10467;42.338;23.552;2022-07-17T04:49:44;91484.06;;;20.64;100.00
20616;BME280;10467;42.338;23.552;2022-07-17T04:52:09;91484.31;;;20.98;100.00
20616;BME280;10467;42.338;23.552;2022-07-17T04:54:34;91495.72;;;21.30;93.04
20616;BME280;10467;42.338;23.552;2022-07-17T04:57:00;91486.97;;;21.37;90.52
20616;BME280;10467;42.338;23.552;2022-07-17T04:59:25;91498.88;;;21.55;88.63
20616;BME280;10467;42.338;23.552;2022-07-17T05:01:50;91502.66;;;21.73;83.08
20616;BME280;10467;42.338;23.552;2022-07-17T05:04:15;91500.63;;;21.93;80.32
20616;BME280;10467;42.338;23.552;2022-07-17T05:06:41;91501.25;;;22.06;76.33
20616;BME280;10467;42.338;23.552;2022-07-17T05:09:06;91507.38;;;22.03;71.76
20616;BME280;10467;42.338;23.552;2022-07-17T05:11:31;91507.28;;;21.96;74.08
20616;BME280;10467;42.338;23.552;2022-07-17T05:13:57;91502.94;;;21.91;70.47
20616;BME280;10467;42.338;23.552;2022-07-17T05:16:22;91511.97;;;21.99;68.97
20616;BME280;10467;42.338;23.552;2022-07-17T05:18:47;91516.88;;;22.16;68.75
20616;BME280;10467;42.338;23.552;2022-07-17T05:21:12;91516.28;;;22.03;63.57
20616;BME280;10467;42.338;23.552;2022-07-17T05:23:39;91519.88;;;21.85;65.40
20616;BME280;10467;42.338;23.552;2022-07-17T05:26:04;91509.44;;;22.09;63.63
20616;BME280;10467;42.338;23.552;2022-07-17T05:28:30;91514.75;;;22.29;63.07
20616;BME280;10467;42.338;23.552;2022-07-17T05:33:20;91521.88;;;22.40;61.08
20616;BME280;10467;42.338;23.552;2022-07-17T05:35:45;91516.56;;;22.48;62.45
20616;BME280;10467;42.338;23.552;2022-07-17T05:38:11;91527.19;;;22.60;60.17
20616;BME280;10467;42.338;23.552;2022-07-17T05:40:36;91537.75;;;22.68;59.88
20616;BME280;10467;42.338;23.552;2022-07-17T05:43:01;91529.66;;;22.42;59.77
20616;BME280;10467;42.338;23.552;2022-07-17T05:45:27;91530.63;;;22.57;59.26
20616;BME280;10467;42.338;23.552;2022-07-17T05:47:52;91534.66;;;22.70;60.89
20616;BME280;10467;42.338;23.552;2022-07-17T05:50:17;91535.09;;;23.36;58.62
20616;BME280;10467;42.338;23.552;2022-07-17T05:52:42;91533.72;;;23.52;58.31
20616;BME280;10467;42.338;23.552;2022-07-17T05:55:08;91535.22;;;25.07;57.00
20616;BME280;10467;42.338;23.552;2022-07-17T05:57:34;91531.44;;;28.47;47.64
20616;BME280;10467;42.338;23.552;2022-07-17T05:59:59;91543.00;;;29.75;43.58
20616;BME280;10467;42.338;23.552;2022-07-17T06:02:25;91545.78;;;31.82;40.50
20616;BME280;10467;42.338;23.552;2022-07-17T06:04:50;91550.72;;;32.43;38.66
20616;BME280;10467;42.338;23.552;2022-07-17T06:07:15;91555.47;;;32.75;38.03
20616;BME280;10467;42.338;23.552;2022-07-17T06:09:40;91556.28;;;33.79;35.08
20616;BME280;10467;42.338;23.552;2022-07-17T06:12:06;91546.88;;;35.29;32.95
20616;BME280;10467;42.338;23.552;2022-07-17T06:14:31;91557.72;;;34.38;34.77
20616;BME280;10467;42.338;23.552;2022-07-17T06:16:57;91555.13;;;35.07;32.68
20616;BME280;10467;42.338;23.552;2022-07-17T06:19:22;91554.59;;;33.69;34.34
20616;BME280;10467;42.338;23.552;2022-07-17T06:21:47;91561.75;;;32.59;33.98
20616;BME280;10467;42.338;23.552;2022-07-17T06:24:12;91552.28;;;33.96;33.05
20616;BME280;10467;42.338;23.552;2022-07-17T06:26:38;91552.00;;;35.96;30.55
20616;BME280;10467;42.338;23.552;2022-07-17T06:29:03;91551.25;;;36.57;30.20
20616;BME280;10467;42.338;23.552;2022-07-17T06:31:28;91548.97;;;37.24;29.71
20616;BME280;10467;42.338;23.552;2022-07-17T06:33:54;91541.84;;;35.02;31.07
20616;BME280;10467;42.338;23.552;2022-07-17T06:36:19;91542.75;;;35.33;30.59
20616;BME280;10467;42.338;23.552;2022-07-17T06:38:44;91552.72;;;34.83;30.40
20616;BME280;10467;42.338;23.552;2022-07-17T06:41:10;91551.94;;;32.91;32.65
20616;BME280;10467;42.338;23.552;2022-07-17T06:43:35;91546.66;;;34.89;31.73
20616;BME280;10467;42.338;23.552;2022-07-17T06:46:00;91546.47;;;34.58;31.51
20616;BME280;10467;42.338;23.552;2022-07-17T06:48:25;91557.59;;;34.92;31.01
20616;BME280;10467;42.338;23.552;2022-07-17T06:50:51;91556.50;;;33.43;32.16
20616;BME280;10467;42.338;23.552;2022-07-17T06:53:16;91558.50;;;34.64;31.16
20616;BME280;10467;42.338;23.552;2022-07-17T06:55:41;91557.50;;;35.18;30.88
20616;BME280;10467;42.338;23.552;2022-07-17T06:58:07;91557.50;;;34.45;31.05
20616;BME280;10467;42.338;23.552;2022-07-17T07:00:33;91555.47;;;35.09;30.33
20616;BME280;10467;42.338;23.552;2022-07-17T07:03:17;91557.03;;;35.32;29.70
20616;BME280;10467;42.338;23.552;2022-07-17T07:05:42;91561.25;;;33.84;30.62
20616;BME280;10467;42.338;23.552;2022-07-17T07:08:08;91558.75;;;35.17;30.08
20616;BME280;10467;42.338;23.552;2022-07-17T07:10:33;91560.69;;;35.41;30.36
20616;BME280;10467;42.338;23.552;2022-07-17T07:12:58;91556.09;;;34.40;30.66
20616;BME280;10467;42.338;23.552;2022-07-17T07:15:24;91557.97;;;33.47;31.15
20616;BME280;10467;42.338;23.552;2022-07-17T07:17:49;91559.56;;;34.03;31.11
20616;BME280;10467;42.338;23.552;2022-07-17T07:20:15;91561.00;;;34.07;30.36
20616;BME280;10467;42.338;23.552;2022-07-17T07:22:40;91567.69;;;34.61;29.69
20616;BME280;10467;42.338;23.552;2022-07-17T07:25:06;91566.63;;;33.17;31.68
20616;BME280;10467;42.338;23.552;2022-07-17T07:27:31;91571.00;;;33.59;30.48
20616;BME280;10467;42.338;23.552;2022-07-17T07:29:57;91563.19;;;34.00;30.92
20616;BME280;10467;42.338;23.552;2022-07-17T07:32:22;91568.84;;;35.45;29.19
20616;BME280;10467;42.338;23.552;2022-07-17T07:34:48;91569.44;;;35.27;29.79
20616;BME280;10467;42.338;23.552;2022-07-17T07:37:13;91571.56;;;35.23;29.81
20616;BME280;10467;42.338;23.552;2022-07-17T07:39:38;91579.09;;;35.35;28.80
20616;BME280;10467;42.338;23.552;2022-07-17T07:42:04;91577.84;;;34.76;31.34
20616;BME280;10467;42.338;23.552;2022-07-17T07:44:29;91578.34;;;35.09;29.87
20616;BME280;10467;42.338;23.552;2022-07-17T07:46:55;91580.72;;;34.60;31.08
20616;BME280;10467;42.338;23.552;2022-07-17T07:49:20;91580.75;;;34.06;30.28
20616;BME280;10467;42.338;23.552;2022-07-17T07:51:45;91584.41;;;32.99;30.97
20616;BME280;10467;42.338;23.552;2022-07-17T07:54:11;91582.09;;;32.82;32.23
20616;BME280;10467;42.338;23.552;2022-07-17T07:56:36;91589.75;;;33.06;31.61
20616;BME280;10467;42.338;23.552;2022-07-17T07:59:02;91591.63;;;33.84;31.91
20616;BME280;10467;42.338;23.552;2022-07-17T08:01:27;91592.06;;;33.82;30.55
20616;BME280;10467;42.338;23.552;2022-07-17T08:03:53;91592.16;;;35.91;29.89
20616;BME280;10467;42.338;23.552;2022-07-17T08:06:18;91594.75;;;37.10;27.93
20616;BME280;10467;42.338;23.552;2022-07-17T08:08:44;91601.16;;;37.47;27.19
20616;BME280;10467;42.338;23.552;2022-07-17T08:11:09;91598.94;;;37.24;27.75
20616;BME280;10467;42.338;23.552;2022-07-17T08:13:35;91597.91;;;36.90;27.66
20616;BME280;10467;42.338;23.552;2022-07-17T08:16:00;91600.44;;;35.69;29.45
20616;BME280;10467;42.338;23.552;2022-07-17T08:18:26;91590.22;;;35.45;29.30
20616;BME280;10467;42.338;23.552;2022-07-17T08:20:52;91593.34;;;37.05;29.22
20616;BME280;10467;42.338;23.552;2022-07-17T08:23:17;91596.78;;;35.94;29.31
20616;BME280;10467;42.338;23.552;2022-07-17T08:25:42;91591.47;;;35.31;29.80
20616;BME280;10467;42.338;23.552;2022-07-17T08:28:09;91587.22;;;35.04;30.22
20616;BME280;10467;42.338;23.552;2022-07-17T08:30:34;91594.75;;;35.04;30.24
20616;BME280;10467;42.338;23.552;2022-07-17T08:33:01;91597.50;;;37.01;28.08
20616;BME280;10467;42.338;23.552;2022-07-17T08:35:26;91598.44;;;38.72;26.90
20616;BME280;10467;42.338;23.552;2022-07-17T08:37:52;91600.34;;;39.79;26.51
20616;BME280;10467;42.338;23.552;2022-07-17T08:40:24;91600.94;;;41.86;25.18
20616;BME280;10467;42.338;23.552;2022-07-17T08:42:50;91598.84;;;41.81;24.76
20616;BME280;10467;42.338;23.552;2022-07-17T08:45:16;91594.75;;;41.62;23.75
20616;BME280;10467;42.338;23.552;2022-07-17T08:47:41;91592.47;;;40.76;25.86
20616;BME280;10467;42.338;23.552;2022-07-17T08:50:08;91602.19;;;40.80;24.89
20616;BME280;10467;42.338;23.552;2022-07-17T08:52:34;91601.47;;;39.49;24.59
20616;BME280;10467;42.338;23.552;2022-07-17T08:55:01;91600.44;;;39.85;24.33
20616;BME280;10467;42.338;23.552;2022-07-17T08:57:26;91593.75;;;37.53;27.02
20616;BME280;10467;42.338;23.552;2022-07-17T08:59:52;91586.00;;;35.75;25.94
20616;BME280;10467;42.338;23.552;2022-07-17T09:02:17;91581.34;;;33.26;28.84
20616;BME280;10467;42.338;23.552;2022-07-17T09:04:42;91590.84;;;31.28;32.59
20616;BME280;10467;42.338;23.552;2022-07-17T09:07:17;91584.56;;;30.81;32.46
20616;BME280;10467;42.338;23.552;2022-07-17T09:09:42;91585.03;;;32.02;31.48
20616;BME280;10467;42.338;23.552;2022-07-17T09:12:14;91594.88;;;34.62;29.64
20616;BME280;10467;42.338;23.552;2022-07-17T09:14:40;91592.56;;;35.33;28.40
20616;BME280;10467;42.338;23.552;2022-07-17T09:17:06;91595.47;;;36.92;27.69
20616;BME280;10467;42.338;23.552;2022-07-17T09:19:33;91593.59;;;37.38;26.59
20616;BME280;10467;42.338;23.552;2022-07-17T09:22:19;91590.63;;;38.43;26.97
20616;BME280;10467;42.338;23.552;2022-07-17T09:27:11;91591.94;;;37.01;27.04
20616;BME280;10467;42.338;23.552;2022-07-17T09:32:22;91589.44;;;37.34;27.33
20616;BME280;10467;42.338;23.552;2022-07-17T09:34:48;91578.13;;;36.39;27.44
20616;BME280;10467;42.338;23.552;2022-07-17T09:37:14;91573.25;;;38.75;25.99
20616;BME280;10467;42.338;23.552;2022-07-17T09:39:40;91573.63;;;35.32;27.78
20616;BME280;10467;42.338;23.552;2022-07-17T09:42:06;91575.53;;;35.91;28.82
20616;BME280;10467;42.338;23.552;2022-07-17T09:44:31;91568.97;;;36.60;27.86
20616;BME280;10467;42.338;23.552;2022-07-17T09:46:56;91574.31;;;37.99;28.17
20616;BME280;10467;42.338;23.552;2022-07-17T09:49:25;91570.00;;;37.34;27.97
20616;BME280;10467;42.338;23.552;2022-07-17T09:51:51;91568.22;;;38.88;26.83
20616;BME280;10467;42.338;23.552;2022-07-17T09:54:17;91574.03;;;39.80;25.26
20616;BME280;10467;42.338;23.552;2022-07-17T09:56:45;91566.31;;;35.72;28.50
20616;BME280;10467;42.338;23.552;2022-07-17T09:59:12;91565.31;;;35.45;29.57
20616;BME280;10467;42.338;23.552;2022-07-17T10:01:38;91573.34;;;37.10;27.77
20616;BME280;10467;42.338;23.552;2022-07-17T10:04:04;91568.63;;;37.84;26.83
20616;BME280;10467;42.338;23.552;2022-07-17T10:06:30;91572.47;;;37.41;26.69
20616;BME280;10467;42.338;23.552;2022-07-17T10:08:55;91567.56;;;37.72;27.01
20616;BME280;10467;42.338;23.552;2022-07-17T10:11:21;91571.59;;;36.95;28.02
20616;BME280;10467;42.338;23.552;2022-07-17T10:13:47;91568.41;;;37.14;27.99
20616;BME280;10467;42.338;23.552;2022-07-17T10:16:13;91564.34;;;36.57;29.40
20616;BME280;10467;42.338;23.552;2022-07-17T10:21:15;91562.34;;;38.53;27.71
20616;BME280;10467;42.338;23.552;2022-07-17T10:23:41;91556.28;;;38.64;27.09
20616;BME280;10467;42.338;23.552;2022-07-17T10:26:07;91568.66;;;38.54;27.26
20616;BME280;10467;42.338;23.552;2022-07-17T10:28:39;91559.16;;;36.68;28.83
20616;BME280;10467;42.338;23.552;2022-07-17T10:31:05;91557.47;;;35.65;30.07
20616;BME280;10467;42.338;23.552;2022-07-17T10:33:30;91556.13;;;37.80;27.72
20616;BME280;10467;42.338;23.552;2022-07-17T10:35:55;91555.56;;;36.49;28.79
20616;BME280;10467;42.338;23.552;2022-07-17T10:38:24;91540.53;;;36.07;29.02
20616;BME280;10467;42.338;23.552;2022-07-17T10:40:58;91538.41;;;36.33;29.63
20616;BME280;10467;42.338;23.552;2022-07-17T10:43:24;91541.91;;;35.58;29.38
20616;BME280;10467;42.338;23.552;2022-07-17T10:45:50;91542.09;;;36.08;29.77
20616;BME280;10467;42.338;23.552;2022-07-17T10:48:16;91546.50;;;36.98;29.20
20616;BME280;10467;42.338;23.552;2022-07-17T10:50:46;91542.75;;;36.83;28.53
20616;BME280;10467;42.338;23.552;2022-07-17T10:53:25;91533.31;;;37.75;28.26
20616;BME280;10467;42.338;23.552;2022-07-17T10:55:55;91537.84;;;38.76;27.35
20616;BME280;10467;42.338;23.552;2022-07-17T10:58:22;91541.41;;;38.76;27.44
20616;BME280;10467;42.338;23.552;2022-07-17T11:01:05;91531.03;;;38.34;27.93
20616;BME280;10467;42.338;23.552;2022-07-17T11:03:33;91533.47;;;35.05;30.89
20616;BME280;10467;42.338;23.552;2022-07-17T11:06:10;91536.16;;;34.33;30.85
20616;BME280;10467;42.338;23.552;2022-07-17T11:08:40;91535.72;;;34.34;31.59
20616;BME280;10467;42.338;23.552;2022-07-17T11:11:05;91530.25;;;35.63;30.86
20616;BME280;10467;42.338;23.552;2022-07-17T11:13:31;91537.31;;;35.42;30.07
20616;BME280;10467;42.338;23.552;2022-07-17T11:15:56;91531.97;;;34.15;31.12
20616;BME280;10467;42.338;23.552;2022-07-17T11:18:21;91529.38;;;34.84;30.54
20616;BME280;10467;42.338;23.552;2022-07-17T11:20:54;91529.03;;;35.30;30.62
20616;BME280;10467;42.338;23.552;2022-07-17T11:23:21;91530.19;;;37.55;29.91
20616;BME280;10467;42.338;23.552;2022-07-17T11:30:55;91519.25;;;37.33;28.42
20616;BME280;10467;42.338;23.552;2022-07-17T11:33:21;91521.56;;;37.35;28.32
20616;BME280;10467;42.338;23.552;2022-07-17T11:35:46;91516.63;;;39.11;27.18
20616;BME280;10467;42.338;23.552;2022-07-17T11:38:12;91522.34;;;36.77;28.58
20616;BME280;10467;42.338;23.552;2022-07-17T11:40:47;91522.84;;;35.82;29.92
20616;BME280;10467;42.338;23.552;2022-07-17T11:43:12;91518.63;;;35.34;30.40
20616;BME280;10467;42.338;23.552;2022-07-17T11:45:38;91516.19;;;33.74;30.37
20616;BME280;10467;42.338;23.552;2022-07-17T11:48:05;91509.09;;;33.60;32.42
20616;BME280;10467;42.338;23.552;2022-07-17T11:50:30;91514.41;;;35.07;30.81
20616;BME280;10467;42.338;23.552;2022-07-17T11:52:59;91508.00;;;36.20;29.77
20616;BME280;10467;42.338;23.552;2022-07-17T11:55:25;91518.91;;;37.22;28.32
20616;BME280;10467;42.338;23.552;2022-07-17T11:57:59;91509.41;;;34.04;30.56
20616;BME280;10467;42.338;23.552;2022-07-17T12:00:24;91508.19;;;31.75;34.09
20616;BME280;10467;42.338;23.552;2022-07-17T12:02:59;91518.78;;;32.62;34.05
20616;BME280;10467;42.338;23.552;2022-07-17T12:05:29;91504.16;;;34.82;31.33
20616;BME280;10467;42.338;23.552;2022-07-17T12:07:54;91513.03;;;34.90;30.54
20616;BME280;10467;42.338;23.552;2022-07-17T12:10:21;91509.94;;;36.10;28.65
20616;BME280;10467;42.338;23.552;2022-07-17T12:13:00;91497.69;;;35.46;30.04
20616;BME280;10467;42.338;23.552;2022-07-17T12:15:48;91506.31;;;34.66;30.07
20616;BME280;10467;42.338;23.552;2022-07-17T12:20:47;91496.16;;;36.28;28.76
20616;BME280;10467;42.338;23.552;2022-07-17T12:23:31;91493.00;;;36.08;29.46
20616;BME280;10467;42.338;23.552;2022-07-17T12:26:10;91487.75;;;36.41;28.09
20616;BME280;10467;42.338;23.552;2022-07-17T12:28:36;91491.19;;;35.39;30.82
20616;BME280;10467;42.338;23.552;2022-07-17T12:31:02;91494.13;;;35.45;29.68
20616;BME280;10467;42.338;23.552;2022-07-17T12:33:28;91490.22;;;36.08;29.20
20616;BME280;10467;42.338;23.552;2022-07-17T12:35:53;91483.53;;;35.96;29.16
20616;BME280;10467;42.338;23.552;2022-07-17T12:38:18;91479.59;;;35.54;29.31
20616;BME280;10467;42.338;23.552;2022-07-17T12:40:45;91481.75;;;35.15;30.12
20616;BME280;10467;42.338;23.552;2022-07-17T12:43:10;91488.94;;;34.65;30.00
20616;BME280;10467;42.338;23.552;2022-07-17T12:45:35;91485.22;;;35.06;30.82
20616;BME280;10467;42.338;23.552;2022-07-17T12:48:01;91477.47;;;36.11;29.16
20616;BME280;10467;42.338;23.552;2022-07-17T12:50:26;91476.50;;;34.95;29.88
20616;BME280;10467;42.338;23.552;2022-07-17T12:52:52;91473.69;;;35.42;29.04
20616;BME280;10467;42.338;23.552;2022-07-17T12:55:17;91473.06;;;35.04;29.42
20616;BME280;10467;42.338;23.552;2022-07-17T12:57:42;91471.34;;;35.63;29.33